MMHO/HMO METAR and TAF weather

Enter ICAO airport designator
Station Type Date Time Source
MMHO METAR 2019/06/18 04:40 UTC NOAA

MMHO 180440Z 00000KT 10SM SKC 27/07 A2985 RMK HZY


Station Type Date Time Source
MMHO Decoded METAR 2019/06/18 04:40 UTC NOAA

Hermosillo, Son., Mexico (MMHO) 29-04N 110-57W
Jun 18, 2019 - 12:40 AM EDT / 2019.06.18 0440 UTC
Wind: Calm:0
Visibility: 10 mile(s):0
Sky conditions: clear
Temperature: 80 F (27 C)
Dew Point: 44 F (7 C)
Relative Humidity: 28%
Pressure (altimeter): 29.85 in. Hg (1010 hPa)
ob: MMHO 180440Z 00000KT 10SM SKC 27/07 A2985 RMK HZY
cycle: 4

Station Type Date Time Source
MMHO TAF 2019/06/18 06:33 UTC NOAA

TAF MMHO 180426Z 1806/1906 24005KT P6SM SKC
FM181800 20010KT P6SM SCT020
FM190200 24005KT P6SM SCT250

Example: see airport list